sensor_id;sensor_type;location;lat;lon;timestamp;P1;durP1;ratioP1;P2;durP2;ratioP2
25637;SDS011;13496;51.040;13.680;2023-04-29T00:04:54;3.30;;;3.00;;
25637;SDS011;13496;51.040;13.680;2023-04-29T00:09:57;3.20;;;2.97;;
25637;SDS011;13496;51.040;13.680;2023-04-29T00:14:59;3.13;;;2.85;;
25637;SDS011;13496;51.040;13.680;2023-04-29T00:20:03;3.92;;;2.92;;
25637;SDS011;13496;51.040;13.680;2023-04-29T00:25:05;3.20;;;3.00;;
25637;SDS011;13496;51.040;13.680;2023-04-29T00:30:07;2.90;;;2.60;;
25637;SDS011;13496;51.040;13.680;2023-04-29T00:35:09;2.95;;;2.67;;
25637;SDS011;13496;51.040;13.680;2023-04-29T00:40:11;3.20;;;2.90;;
25637;SDS011;13496;51.040;13.680;2023-04-29T00:45:15;3.35;;;3.05;;
25637;SDS011;13496;51.040;13.680;2023-04-29T00:50:17;3.13;;;2.83;;
25637;SDS011;13496;51.040;13.680;2023-04-29T00:55:19;3.40;;;3.20;;
25637;SDS011;13496;51.040;13.680;2023-04-29T01:00:21;2.78;;;2.58;;
25637;SDS011;13496;51.040;13.680;2023-04-29T01:05:23;3.10;;;2.90;;
25637;SDS011;13496;51.040;13.680;2023-04-29T01:10:28;2.80;;;2.60;;
25637;SDS011;13496;51.040;13.680;2023-04-29T01:15:39;3.13;;;2.90;;
25637;SDS011;13496;51.040;13.680;2023-04-29T01:20:50;3.38;;;3.08;;
25637;SDS011;13496;51.040;13.680;2023-04-29T01:25:52;2.70;;;2.50;;
25637;SDS011;13496;51.040;13.680;2023-04-29T01:31:14;2.70;;;2.50;;
25637;SDS011;13496;51.040;13.680;2023-04-29T01:41:50;2.85;;;2.65;;
25637;SDS011;13496;51.040;13.680;2023-04-29T01:47:02;2.78;;;2.58;;
25637;SDS011;13496;51.040;13.680;2023-04-29T01:52:10;3.97;;;3.00;;
25637;SDS011;13496;51.040;13.680;2023-04-29T01:57:14;2.95;;;2.72;;
25637;SDS011;13496;51.040;13.680;2023-04-29T02:02:42;2.83;;;2.63;;
25637;SDS011;13496;51.040;13.680;2023-04-29T02:08:09;3.40;;;3.10;;
25637;SDS011;13496;51.040;13.680;2023-04-29T02:13:17;3.33;;;2.75;;
25637;SDS011;13496;51.040;13.680;2023-04-29T02:18:19;2.90;;;2.70;;
25637;SDS011;13496;51.040;13.680;2023-04-29T02:23:23;3.05;;;2.85;;
25637;SDS011;13496;51.040;13.680;2023-04-29T02:28:24;2.80;;;2.60;;
25637;SDS011;13496;51.040;13.680;2023-04-29T02:33:26;3.20;;;2.90;;
25637;SDS011;13496;51.040;13.680;2023-04-29T02:38:28;2.90;;;2.70;;
25637;SDS011;13496;51.040;13.680;2023-04-29T02:43:29;2.70;;;2.50;;
25637;SDS011;13496;51.040;13.680;2023-04-29T02:48:33;2.92;;;2.72;;
25637;SDS011;13496;51.040;13.680;2023-04-29T02:53:53;3.15;;;2.95;;
25637;SDS011;13496;51.040;13.680;2023-04-29T02:58:55;3.20;;;2.90;;
25637;SDS011;13496;51.040;13.680;2023-04-29T03:03:57;2.78;;;2.58;;
25637;SDS011;13496;51.040;13.680;2023-04-29T03:08:58;3.05;;;2.75;;
25637;SDS011;13496;51.040;13.680;2023-04-29T03:14:00;2.63;;;2.42;;
25637;SDS011;13496;51.040;13.680;2023-04-29T03:19:02;3.03;;;2.83;;
25637;SDS011;13496;51.040;13.680;2023-04-29T03:24:04;2.60;;;2.40;;
25637;SDS011;13496;51.040;13.680;2023-04-29T03:29:09;2.70;;;2.50;;
25637;SDS011;13496;51.040;13.680;2023-04-29T03:34:10;2.72;;;2.53;;
25637;SDS011;13496;51.040;13.680;2023-04-29T03:39:17;2.90;;;2.60;;
25637;SDS011;13496;51.040;13.680;2023-04-29T03:44:19;2.88;;;2.67;;
25637;SDS011;13496;51.040;13.680;2023-04-29T03:49:21;2.97;;;2.75;;
25637;SDS011;13496;51.040;13.680;2023-04-29T03:54:23;2.65;;;2.45;;
25637;SDS011;13496;51.040;13.680;2023-04-29T03:59:26;2.65;;;2.45;;
25637;SDS011;13496;51.040;13.680;2023-04-29T04:04:27;2.38;;;2.20;;
25637;SDS011;13496;51.040;13.680;2023-04-29T04:09:29;2.63;;;2.42;;
25637;SDS011;13496;51.040;13.680;2023-04-29T04:14:31;2.75;;;2.55;;
25637;SDS011;13496;51.040;13.680;2023-04-29T04:19:33;2.28;;;2.08;;
25637;SDS011;13496;51.040;13.680;2023-04-29T04:24:35;2.50;;;2.30;;
25637;SDS011;13496;51.040;13.680;2023-04-29T04:29:37;2.47;;;2.28;;
25637;SDS011;13496;51.040;13.680;2023-04-29T04:34:45;2.80;;;2.60;;
25637;SDS011;13496;51.040;13.680;2023-04-29T04:39:47;2.75;;;2.55;;
25637;SDS011;13496;51.040;13.680;2023-04-29T04:44:51;2.42;;;2.22;;
25637;SDS011;13496;51.040;13.680;2023-04-29T04:50:04;2.33;;;2.13;;
25637;SDS011;13496;51.040;13.680;2023-04-29T04:55:06;2.45;;;2.25;;
25637;SDS011;13496;51.040;13.680;2023-04-29T05:00:11;2.60;;;2.40;;
25637;SDS011;13496;51.040;13.680;2023-04-29T05:05:13;2.70;;;2.50;;
25637;SDS011;13496;51.040;13.680;2023-04-29T05:10:17;2.40;;;2.20;;
25637;SDS011;13496;51.040;13.680;2023-04-29T05:15:23;2.38;;;2.13;;
25637;SDS011;13496;51.040;13.680;2023-04-29T05:20:29;2.80;;;2.60;;
25637;SDS011;13496;51.040;13.680;2023-04-29T05:25:31;2.50;;;2.30;;
25637;SDS011;13496;51.040;13.680;2023-04-29T05:30:33;3.58;;;2.42;;
25637;SDS011;13496;51.040;13.680;2023-04-29T05:35:35;2.47;;;2.20;;
25637;SDS011;13496;51.040;13.680;2023-04-29T05:40:37;2.33;;;2.22;;
25637;SDS011;13496;51.040;13.680;2023-04-29T05:46:01;2.45;;;2.25;;
25637;SDS011;13496;51.040;13.680;2023-04-29T05:51:03;2.10;;;2.00;;
25637;SDS011;13496;51.040;13.680;2023-04-29T05:56:07;2.35;;;2.15;;
25637;SDS011;13496;51.040;13.680;2023-04-29T06:01:10;2.38;;;2.17;;
25637;SDS011;13496;51.040;13.680;2023-04-29T06:06:11;2.20;;;2.08;;
25637;SDS011;13496;51.040;13.680;2023-04-29T06:11:19;2.50;;;2.30;;
25637;SDS011;13496;51.040;13.680;2023-04-29T06:16:20;2.28;;;2.08;;
25637;SDS011;13496;51.040;13.680;2023-04-29T06:21:22;2.10;;;1.92;;
25637;SDS011;13496;51.040;13.680;2023-04-29T06:26:24;2.33;;;2.13;;
25637;SDS011;13496;51.040;13.680;2023-04-29T06:31:26;2.25;;;2.00;;
25637;SDS011;13496;51.040;13.680;2023-04-29T06:36:32;2.38;;;2.17;;
25637;SDS011;13496;51.040;13.680;2023-04-29T06:41:52;2.53;;;2.20;;
25637;SDS011;13496;51.040;13.680;2023-04-29T06:47:13;2.25;;;2.05;;
25637;SDS011;13496;51.040;13.680;2023-04-29T06:52:23;2.15;;;1.98;;
25637;SDS011;13496;51.040;13.680;2023-04-29T06:57:24;2.38;;;2.17;;
25637;SDS011;13496;51.040;13.680;2023-04-29T07:02:26;2.05;;;1.85;;
25637;SDS011;13496;51.040;13.680;2023-04-29T07:07:28;3.72;;;2.22;;
25637;SDS011;13496;51.040;13.680;2023-04-29T07:12:29;4.57;;;2.20;;
25637;SDS011;13496;51.040;13.680;2023-04-29T07:17:31;2.40;;;2.20;;
25637;SDS011;13496;51.040;13.680;2023-04-29T07:22:33;1.95;;;1.80;;
25637;SDS011;13496;51.040;13.680;2023-04-29T07:27:34;2.38;;;2.15;;
25637;SDS011;13496;51.040;13.680;2023-04-29T07:32:37;2.20;;;2.00;;
25637;SDS011;13496;51.040;13.680;2023-04-29T07:37:39;2.28;;;2.08;;
25637;SDS011;13496;51.040;13.680;2023-04-29T07:42:41;2.10;;;1.90;;
25637;SDS011;13496;51.040;13.680;2023-04-29T07:47:43;1.83;;;1.73;;
25637;SDS011;13496;51.040;13.680;2023-04-29T07:52:46;2.55;;;2.17;;
25637;SDS011;13496;51.040;13.680;2023-04-29T07:57:51;2.20;;;2.00;;
25637;SDS011;13496;51.040;13.680;2023-04-29T08:02:53;2.75;;;1.92;;
25637;SDS011;13496;51.040;13.680;2023-04-29T08:07:56;2.03;;;1.88;;
25637;SDS011;13496;51.040;13.680;2023-04-29T08:13:00;3.78;;;1.65;;
25637;SDS011;13496;51.040;13.680;2023-04-29T08:18:03;1.80;;;1.70;;
25637;SDS011;13496;51.040;13.680;2023-04-29T08:23:05;1.92;;;1.73;;
25637;SDS011;13496;51.040;13.680;2023-04-29T08:28:06;1.85;;;1.73;;
25637;SDS011;13496;51.040;13.680;2023-04-29T08:33:08;2.15;;;1.88;;
25637;SDS011;13496;51.040;13.680;2023-04-29T08:38:10;2.08;;;1.88;;
25637;SDS011;13496;51.040;13.680;2023-04-29T08:43:12;1.70;;;1.60;;
25637;SDS011;13496;51.040;13.680;2023-04-29T08:48:15;2.05;;;1.60;;
25637;SDS011;13496;51.040;13.680;2023-04-29T08:53:18;1.80;;;1.70;;
25637;SDS011;13496;51.040;13.680;2023-04-29T08:58:19;1.65;;;1.55;;
25637;SDS011;13496;51.040;13.680;2023-04-29T09:03:33;1.80;;;1.65;;
25637;SDS011;13496;51.040;13.680;2023-04-29T09:08:43;1.77;;;1.67;;
25637;SDS011;13496;51.040;13.680;2023-04-29T09:13:44;1.73;;;1.63;;
25637;SDS011;13496;51.040;13.680;2023-04-29T09:18:47;1.88;;;1.60;;
25637;SDS011;13496;51.040;13.680;2023-04-29T09:23:50;1.80;;;1.67;;
25637;SDS011;13496;51.040;13.680;2023-04-29T09:29:06;1.70;;;1.60;;
25637;SDS011;13496;51.040;13.680;2023-04-29T09:34:12;1.50;;;1.40;;
25637;SDS011;13496;51.040;13.680;2023-04-29T09:39:18;1.70;;;1.60;;
25637;SDS011;13496;51.040;13.680;2023-04-29T09:44:40;2.03;;;1.55;;
25637;SDS011;13496;51.040;13.680;2023-04-29T09:49:43;3.42;;;1.65;;
25637;SDS011;13496;51.040;13.680;2023-04-29T09:54:50;1.70;;;1.60;;
25637;SDS011;13496;51.040;13.680;2023-04-29T09:59:51;2.33;;;1.70;;
25637;SDS011;13496;51.040;13.680;2023-04-29T10:04:53;1.85;;;1.55;;
25637;SDS011;13496;51.040;13.680;2023-04-29T10:09:59;1.85;;;1.67;;
25637;SDS011;13496;51.040;13.680;2023-04-29T10:15:22;1.75;;;1.65;;
25637;SDS011;13496;51.040;13.680;2023-04-29T10:20:29;2.20;;;1.60;;
25637;SDS011;13496;51.040;13.680;2023-04-29T10:25:31;1.60;;;1.50;;
25637;SDS011;13496;51.040;13.680;2023-04-29T10:30:36;1.50;;;1.40;;
25637;SDS011;13496;51.040;13.680;2023-04-29T10:35:39;1.60;;;1.50;;
25637;SDS011;13496;51.040;13.680;2023-04-29T10:40:45;2.00;;;1.80;;
25637;SDS011;13496;51.040;13.680;2023-04-29T10:45:49;1.60;;;1.50;;
25637;SDS011;13496;51.040;13.680;2023-04-29T10:55:53;1.60;;;1.50;;
25637;SDS011;13496;51.040;13.680;2023-04-29T11:00:57;1.50;;;1.40;;
25637;SDS011;13496;51.040;13.680;2023-04-29T11:06:07;1.65;;;1.50;;
25637;SDS011;13496;51.040;13.680;2023-04-29T11:11:09;1.42;;;1.33;;
25637;SDS011;13496;51.040;13.680;2023-04-29T11:16:13;1.50;;;1.40;;
25637;SDS011;13496;51.040;13.680;2023-04-29T11:21:15;1.88;;;1.35;;
25637;SDS011;13496;51.040;13.680;2023-04-29T11:26:19;1.65;;;1.55;;
25637;SDS011;13496;51.040;13.680;2023-04-29T11:31:24;1.40;;;1.30;;
25637;SDS011;13496;51.040;13.680;2023-04-29T11:36:30;3.00;;;1.70;;
25637;SDS011;13496;51.040;13.680;2023-04-29T11:41:32;2.00;;;1.40;;
25637;SDS011;13496;51.040;13.680;2023-04-29T11:46:36;2.05;;;1.65;;
25637;SDS011;13496;51.040;13.680;2023-04-29T11:51:37;1.65;;;1.55;;
25637;SDS011;13496;51.040;13.680;2023-04-29T11:56:40;1.60;;;1.50;;
25637;SDS011;13496;51.040;13.680;2023-04-29T12:01:41;1.52;;;1.17;;
25637;SDS011;13496;51.040;13.680;2023-04-29T12:06:43;1.35;;;1.25;;
25637;SDS011;13496;51.040;13.680;2023-04-29T12:11:47;1.30;;;1.20;;
25637;SDS011;13496;51.040;13.680;2023-04-29T12:16:50;1.58;;;1.48;;
25637;SDS011;13496;51.040;13.680;2023-04-29T12:21:52;2.38;;;2.17;;
25637;SDS011;13496;51.040;13.680;2023-04-29T12:26:54;1.10;;;1.10;;
25637;SDS011;13496;51.040;13.680;2023-04-29T12:31:56;1.52;;;1.42;;
25637;SDS011;13496;51.040;13.680;2023-04-29T12:36:58;1.20;;;1.20;;
25637;SDS011;13496;51.040;13.680;2023-04-29T12:42:00;1.50;;;1.40;;
25637;SDS011;13496;51.040;13.680;2023-04-29T12:47:09;2.08;;;1.88;;
25637;SDS011;13496;51.040;13.680;2023-04-29T12:52:11;1.27;;;1.25;;
25637;SDS011;13496;51.040;13.680;2023-04-29T12:57:14;1.48;;;1.38;;
25637;SDS011;13496;51.040;13.680;2023-04-29T13:02:16;1.58;;;1.48;;
25637;SDS011;13496;51.040;13.680;2023-04-29T13:07:18;1.33;;;1.25;;
25637;SDS011;13496;51.040;13.680;2023-04-29T13:12:20;1.65;;;1.13;;
25637;SDS011;13496;51.040;13.680;2023-04-29T13:17:22;2.22;;;2.10;;
25637;SDS011;13496;51.040;13.680;2023-04-29T13:22:24;1.55;;;1.45;;
25637;SDS011;13496;51.040;13.680;2023-04-29T13:27:26;1.45;;;1.30;;
25637;SDS011;13496;51.040;13.680;2023-04-29T13:32:27;2.35;;;1.48;;
25637;SDS011;13496;51.040;13.680;2023-04-29T13:37:29;1.48;;;1.40;;
25637;SDS011;13496;51.040;13.680;2023-04-29T13:42:31;1.70;;;1.60;;
25637;SDS011;13496;51.040;13.680;2023-04-29T13:47:33;1.40;;;1.30;;
25637;SDS011;13496;51.040;13.680;2023-04-29T13:52:34;1.70;;;1.60;;
25637;SDS011;13496;51.040;13.680;2023-04-29T13:57:36;1.67;;;1.58;;
25637;SDS011;13496;51.040;13.680;2023-04-29T14:02:38;1.58;;;1.48;;
25637;SDS011;13496;51.040;13.680;2023-04-29T14:07:39;1.75;;;1.65;;
25637;SDS011;13496;51.040;13.680;2023-04-29T14:12:41;1.65;;;1.55;;
25637;SDS011;13496;51.040;13.680;2023-04-29T14:17:43;1.55;;;1.45;;
25637;SDS011;13496;51.040;13.680;2023-04-29T14:22:45;1.75;;;1.65;;
25637;SDS011;13496;51.040;13.680;2023-04-29T14:27:47;1.90;;;1.80;;
25637;SDS011;13496;51.040;13.680;2023-04-29T14:32:49;1.52;;;1.42;;
25637;SDS011;13496;51.040;13.680;2023-04-29T14:37:51;1.90;;;1.80;;
25637;SDS011;13496;51.040;13.680;2023-04-29T14:42:53;2.03;;;1.83;;
25637;SDS011;13496;51.040;13.680;2023-04-29T14:47:54;2.00;;;1.80;;
25637;SDS011;13496;51.040;13.680;2023-04-29T14:52:56;2.25;;;2.05;;
25637;SDS011;13496;51.040;13.680;2023-04-29T14:57:58;2.22;;;2.03;;
25637;SDS011;13496;51.040;13.680;2023-04-29T15:03:00;1.95;;;1.85;;
25637;SDS011;13496;51.040;13.680;2023-04-29T15:08:01;1.70;;;1.60;;
25637;SDS011;13496;51.040;13.680;2023-04-29T15:13:03;2.05;;;1.80;;
25637;SDS011;13496;51.040;13.680;2023-04-29T15:18:06;2.40;;;2.17;;
25637;SDS011;13496;51.040;13.680;2023-04-29T15:23:08;1.85;;;1.75;;
25637;SDS011;13496;51.040;13.680;2023-04-29T15:28:10;2.20;;;2.00;;
25637;SDS011;13496;51.040;13.680;2023-04-29T15:33:12;2.33;;;2.13;;
25637;SDS011;13496;51.040;13.680;2023-04-29T15:38:13;2.80;;;2.60;;
25637;SDS011;13496;51.040;13.680;2023-04-29T15:43:15;2.22;;;2.03;;
25637;SDS011;13496;51.040;13.680;2023-04-29T15:48:17;2.33;;;2.13;;
25637;SDS011;13496;51.040;13.680;2023-04-29T15:53:19;2.10;;;2.00;;
25637;SDS011;13496;51.040;13.680;2023-04-29T15:58:20;3.70;;;3.40;;
25637;SDS011;13496;51.040;13.680;2023-04-29T16:03:22;3.83;;;3.53;;
25637;SDS011;13496;51.040;13.680;2023-04-29T16:08:24;2.40;;;2.22;;
25637;SDS011;13496;51.040;13.680;2023-04-29T16:13:26;2.10;;;2.00;;
25637;SDS011;13496;51.040;13.680;2023-04-29T16:18:27;1.95;;;1.85;;
25637;SDS011;13496;51.040;13.680;2023-04-29T16:23:29;3.00;;;2.80;;
25637;SDS011;13496;51.040;13.680;2023-04-29T16:28:31;3.10;;;2.85;;
25637;SDS011;13496;51.040;13.680;2023-04-29T16:33:33;3.95;;;3.65;;
25637;SDS011;13496;51.040;13.680;2023-04-29T16:38:34;4.05;;;3.75;;
25637;SDS011;13496;51.040;13.680;2023-04-29T16:43:36;4.75;;;4.38;;
25637;SDS011;13496;51.040;13.680;2023-04-29T16:48:38;2.83;;;2.63;;
25637;SDS011;13496;51.040;13.680;2023-04-29T16:53:39;3.03;;;2.83;;
25637;SDS011;13496;51.040;13.680;2023-04-29T16:58:41;3.38;;;3.08;;
25637;SDS011;13496;51.040;13.680;2023-04-29T17:03:43;3.47;;;3.17;;
25637;SDS011;13496;51.040;13.680;2023-04-29T17:08:46;3.63;;;3.33;;
25637;SDS011;13496;51.040;13.680;2023-04-29T17:13:48;3.67;;;3.38;;
25637;SDS011;13496;51.040;13.680;2023-04-29T17:18:50;2.58;;;2.38;;
25637;SDS011;13496;51.040;13.680;2023-04-29T17:23:52;3.08;;;2.88;;
25637;SDS011;13496;51.040;13.680;2023-04-29T17:28:54;2.50;;;2.30;;
25637;SDS011;13496;51.040;13.680;2023-04-29T17:33:56;2.80;;;2.60;;
25637;SDS011;13496;51.040;13.680;2023-04-29T17:39:05;3.00;;;2.80;;
25637;SDS011;13496;51.040;13.680;2023-04-29T17:44:10;2.40;;;2.20;;
25637;SDS011;13496;51.040;13.680;2023-04-29T17:49:11;3.17;;;2.88;;
25637;SDS011;13496;51.040;13.680;2023-04-29T17:54:13;2.47;;;2.28;;
25637;SDS011;13496;51.040;13.680;2023-04-29T17:59:15;3.38;;;3.10;;
25637;SDS011;13496;51.040;13.680;2023-04-29T18:04:17;2.75;;;2.55;;
25637;SDS011;13496;51.040;13.680;2023-04-29T18:09:18;2.78;;;2.58;;
25637;SDS011;13496;51.040;13.680;2023-04-29T18:14:20;3.13;;;2.83;;
25637;SDS011;13496;51.040;13.680;2023-04-29T18:19:22;2.75;;;2.55;;
25637;SDS011;13496;51.040;13.680;2023-04-29T18:24:24;3.55;;;3.25;;
25637;SDS011;13496;51.040;13.680;2023-04-29T18:29:26;2.80;;;2.60;;
25637;SDS011;13496;51.040;13.680;2023-04-29T18:34:34;2.58;;;2.38;;
25637;SDS011;13496;51.040;13.680;2023-04-29T18:39:36;2.63;;;2.42;;
25637;SDS011;13496;51.040;13.680;2023-04-29T18:44:38;2.90;;;2.70;;
25637;SDS011;13496;51.040;13.680;2023-04-29T18:49:40;2.63;;;2.43;;
25637;SDS011;13496;51.040;13.680;2023-04-29T18:54:42;3.75;;;2.90;;
25637;SDS011;13496;51.040;13.680;2023-04-29T18:59:43;2.80;;;2.60;;
25637;SDS011;13496;51.040;13.680;2023-04-29T19:04:45;2.78;;;2.58;;
25637;SDS011;13496;51.040;13.680;2023-04-29T19:09:47;3.20;;;2.90;;
25637;SDS011;13496;51.040;13.680;2023-04-29T19:14:49;3.60;;;3.30;;
25637;SDS011;13496;51.040;13.680;2023-04-29T19:19:50;2.75;;;2.55;;
25637;SDS011;13496;51.040;13.680;2023-04-29T19:24:52;3.40;;;3.10;;
25637;SDS011;13496;51.040;13.680;2023-04-29T19:29:54;2.88;;;2.60;;
25637;SDS011;13496;51.040;13.680;2023-04-29T19:34:56;3.72;;;2.88;;
25637;SDS011;13496;51.040;13.680;2023-04-29T19:39:57;4.07;;;3.03;;
25637;SDS011;13496;51.040;13.680;2023-04-29T19:44:59;2.92;;;2.72;;
25637;SDS011;13496;51.040;13.680;2023-04-29T19:50:01;3.35;;;2.60;;
25637;SDS011;13496;51.040;13.680;2023-04-29T19:55:03;3.90;;;2.53;;
25637;SDS011;13496;51.040;13.680;2023-04-29T20:00:05;2.63;;;2.45;;
25637;SDS011;13496;51.040;13.680;2023-04-29T20:05:08;2.92;;;2.72;;
25637;SDS011;13496;51.040;13.680;2023-04-29T20:10:15;3.28;;;3.08;;
25637;SDS011;13496;51.040;13.680;2023-04-29T20:15:17;3.17;;;2.97;;
25637;SDS011;13496;51.040;13.680;2023-04-29T20:20:19;3.42;;;2.90;;
25637;SDS011;13496;51.040;13.680;2023-04-29T20:25:20;2.90;;;2.70;;
25637;SDS011;13496;51.040;13.680;2023-04-29T20:30:22;2.60;;;2.40;;
25637;SDS011;13496;51.040;13.680;2023-04-29T20:35:24;3.35;;;3.05;;
25637;SDS011;13496;51.040;13.680;2023-04-29T20:40:27;2.92;;;2.72;;
25637;SDS011;13496;51.040;13.680;2023-04-29T20:45:28;3.00;;;2.80;;
25637;SDS011;13496;51.040;13.680;2023-04-29T20:50:30;3.35;;;2.83;;
25637;SDS011;13496;51.040;13.680;2023-04-29T20:55:32;3.05;;;2.80;;
25637;SDS011;13496;51.040;13.680;2023-04-29T21:00:34;2.78;;;2.58;;
25637;SDS011;13496;51.040;13.680;2023-04-29T21:05:35;3.38;;;3.10;;
25637;SDS011;13496;51.040;13.680;2023-04-29T21:10:37;3.17;;;2.60;;
25637;SDS011;13496;51.040;13.680;2023-04-29T21:15:39;2.85;;;2.65;;
25637;SDS011;13496;51.040;13.680;2023-04-29T21:20:41;2.80;;;2.60;;
25637;SDS011;13496;51.040;13.680;2023-04-29T21:25:42;2.92;;;2.63;;
25637;SDS011;13496;51.040;13.680;2023-04-29T21:30:44;4.90;;;3.10;;
25637;SDS011;13496;51.040;13.680;2023-04-29T21:35:46;2.58;;;2.38;;
25637;SDS011;13496;51.040;13.680;2023-04-29T21:40:51;2.90;;;2.70;;
25637;SDS011;13496;51.040;13.680;2023-04-29T21:45:53;3.20;;;2.90;;
25637;SDS011;13496;51.040;13.680;2023-04-29T21:50:55;2.92;;;2.70;;
25637;SDS011;13496;51.040;13.680;2023-04-29T21:55:56;2.88;;;2.67;;
25637;SDS011;13496;51.040;13.680;2023-04-29T22:00:58;3.00;;;2.75;;
25637;SDS011;13496;51.040;13.680;2023-04-29T22:06:04;4.75;;;3.00;;
25637;SDS011;13496;51.040;13.680;2023-04-29T22:11:05;2.70;;;2.50;;
25637;SDS011;13496;51.040;13.680;2023-04-29T22:16:07;2.92;;;2.67;;
25637;SDS011;13496;51.040;13.680;2023-04-29T22:21:09;3.47;;;2.80;;
25637;SDS011;13496;51.040;13.680;2023-04-29T22:26:11;3.10;;;2.90;;
25637;SDS011;13496;51.040;13.680;2023-04-29T22:31:12;3.35;;;2.92;;
25637;SDS011;13496;51.040;13.680;2023-04-29T22:36:14;3.03;;;2.80;;
25637;SDS011;13496;51.040;13.680;2023-04-29T22:41:15;2.80;;;2.60;;
25637;SDS011;13496;51.040;13.680;2023-04-29T22:46:17;3.13;;;2.83;;
25637;SDS011;13496;51.040;13.680;2023-04-29T22:51:19;2.95;;;2.72;;
25637;SDS011;13496;51.040;13.680;2023-04-29T22:56:21;3.20;;;3.00;;
25637;SDS011;13496;51.040;13.680;2023-04-29T23:01:24;5.40;;;2.70;;
25637;SDS011;13496;51.040;13.680;2023-04-29T23:06:26;2.55;;;2.35;;
25637;SDS011;13496;51.040;13.680;2023-04-29T23:11:28;3.25;;;2.90;;
25637;SDS011;13496;51.040;13.680;2023-04-29T23:16:31;2.50;;;2.30;;
25637;SDS011;13496;51.040;13.680;2023-04-29T23:21:33;2.97;;;2.70;;
25637;SDS011;13496;51.040;13.680;2023-04-29T23:26:34;2.80;;;2.60;;
25637;SDS011;13496;51.040;13.680;2023-04-29T23:31:36;2.75;;;2.55;;
25637;SDS011;13496;51.040;13.680;2023-04-29T23:36:38;2.78;;;2.58;;
25637;SDS011;13496;51.040;13.680;2023-04-29T23:41:39;2.92;;;2.72;;
25637;SDS011;13496;51.040;13.680;2023-04-29T23:46:41;3.17;;;2.90;;
25637;SDS011;13496;51.040;13.680;2023-04-29T23:51:43;2.60;;;2.40;;
25637;SDS011;13496;51.040;13.680;2023-04-29T23:56:45;2.90;;;2.70;;
